sensor_id;sensor_type;location;lat;lon;timestamp;P1;durP1;ratioP1;P2;durP2;ratioP2
26253;SDS011;53339;51.378;0.094;2024-03-07T00:00:11;37.50;;;15.20;;
26253;SDS011;53339;51.378;0.094;2024-03-07T00:02:46;46.17;;;16.50;;
26253;SDS011;53339;51.378;0.094;2024-03-07T00:05:16;42.40;;;15.20;;
26253;SDS011;53339;51.378;0.094;2024-03-07T00:07:47;39.50;;;16.05;;
26253;SDS011;53339;51.378;0.094;2024-03-07T00:10:15;48.85;;;15.00;;
26253;SDS011;53339;51.378;0.094;2024-03-07T00:12:45;60.35;;;15.13;;
26253;SDS011;53339;51.378;0.094;2024-03-07T00:15:13;63.20;;;18.15;;
26253;SDS011;53339;51.378;0.094;2024-03-07T00:17:45;58.33;;;17.27;;
26253;SDS011;53339;51.378;0.094;2024-03-07T00:20:13;60.00;;;17.63;;
26253;SDS011;53339;51.378;0.094;2024-03-07T00:22:46;54.15;;;17.77;;
26253;SDS011;53339;51.378;0.094;2024-03-07T00:25:15;46.28;;;18.13;;
26253;SDS011;53339;51.378;0.094;2024-03-07T00:27:47;90.18;;;16.67;;
26253;SDS011;53339;51.378;0.094;2024-03-07T00:30:19;68.05;;;15.23;;
26253;SDS011;53339;51.378;0.094;2024-03-07T00:32:48;52.47;;;15.75;;
26253;SDS011;53339;51.378;0.094;2024-03-07T00:35:19;50.13;;;13.80;;
26253;SDS011;53339;51.378;0.094;2024-03-07T00:37:50;64.07;;;14.15;;
26253;SDS011;53339;51.378;0.094;2024-03-07T00:40:21;58.10;;;15.45;;
26253;SDS011;53339;51.378;0.094;2024-03-07T00:42:50;49.08;;;14.00;;
26253;SDS011;53339;51.378;0.094;2024-03-07T00:45:18;55.47;;;14.60;;
26253;SDS011;53339;51.378;0.094;2024-03-07T00:47:47;66.32;;;14.25;;
26253;SDS011;53339;51.378;0.094;2024-03-07T00:50:16;68.60;;;14.98;;
26253;SDS011;53339;51.378;0.094;2024-03-07T00:52:44;59.67;;;15.20;;
26253;SDS011;53339;51.378;0.094;2024-03-07T00:55:13;51.53;;;15.05;;
26253;SDS011;53339;51.378;0.094;2024-03-07T00:57:45;49.22;;;13.55;;
26253;SDS011;53339;51.378;0.094;2024-03-07T01:00:14;48.60;;;14.00;;
26253;SDS011;53339;51.378;0.094;2024-03-07T01:02:43;61.65;;;15.18;;
26253;SDS011;53339;51.378;0.094;2024-03-07T01:05:11;60.55;;;15.38;;
26253;SDS011;53339;51.378;0.094;2024-03-07T01:07:42;54.17;;;13.73;;
26253;SDS011;53339;51.378;0.094;2024-03-07T01:10:17;73.70;;;15.88;;
26253;SDS011;53339;51.378;0.094;2024-03-07T01:12:49;51.33;;;15.27;;
26253;SDS011;53339;51.378;0.094;2024-03-07T01:15:17;56.63;;;16.48;;
26253;SDS011;53339;51.378;0.094;2024-03-07T01:17:45;61.30;;;15.93;;
26253;SDS011;53339;51.378;0.094;2024-03-07T01:20:13;65.63;;;15.13;;
26253;SDS011;53339;51.378;0.094;2024-03-07T01:22:41;73.85;;;17.33;;
26253;SDS011;53339;51.378;0.094;2024-03-07T01:25:10;70.43;;;16.27;;
26253;SDS011;53339;51.378;0.094;2024-03-07T01:27:39;52.92;;;15.20;;
26253;SDS011;53339;51.378;0.094;2024-03-07T01:30:07;62.85;;;15.77;;
26253;SDS011;53339;51.378;0.094;2024-03-07T01:32:36;52.58;;;14.88;;
26253;SDS011;53339;51.378;0.094;2024-03-07T01:35:05;59.08;;;14.90;;
26253;SDS011;53339;51.378;0.094;2024-03-07T01:37:35;58.92;;;15.80;;
26253;SDS011;53339;51.378;0.094;2024-03-07T01:40:03;48.13;;;15.45;;
26253;SDS011;53339;51.378;0.094;2024-03-07T01:42:32;61.78;;;17.67;;
26253;SDS011;53339;51.378;0.094;2024-03-07T01:45:01;65.57;;;16.33;;
26253;SDS011;53339;51.378;0.094;2024-03-07T01:47:29;76.13;;;18.45;;
26253;SDS011;53339;51.378;0.094;2024-03-07T01:49:58;71.30;;;20.67;;
26253;SDS011;53339;51.378;0.094;2024-03-07T01:52:29;91.38;;;23.10;;
26253;SDS011;53339;51.378;0.094;2024-03-07T01:54:58;79.93;;;21.40;;
26253;SDS011;53339;51.378;0.094;2024-03-07T01:57:26;98.47;;;24.83;;
26253;SDS011;53339;51.378;0.094;2024-03-07T01:59:56;87.18;;;22.98;;
26253;SDS011;53339;51.378;0.094;2024-03-07T02:02:24;77.65;;;19.67;;
26253;SDS011;53339;51.378;0.094;2024-03-07T02:04:52;75.50;;;21.35;;
26253;SDS011;53339;51.378;0.094;2024-03-07T02:07:20;71.78;;;26.17;;
26253;SDS011;53339;51.378;0.094;2024-03-07T02:09:49;73.10;;;21.65;;
26253;SDS011;53339;51.378;0.094;2024-03-07T02:12:16;59.10;;;18.38;;
26253;SDS011;53339;51.378;0.094;2024-03-07T02:14:44;62.85;;;18.38;;
26253;SDS011;53339;51.378;0.094;2024-03-07T02:17:12;66.70;;;18.88;;
26253;SDS011;53339;51.378;0.094;2024-03-07T02:19:40;61.63;;;17.30;;
26253;SDS011;53339;51.378;0.094;2024-03-07T02:22:07;61.75;;;17.67;;
26253;SDS011;53339;51.378;0.094;2024-03-07T02:24:35;59.35;;;17.48;;
26253;SDS011;53339;51.378;0.094;2024-03-07T02:27:03;60.72;;;18.25;;
26253;SDS011;53339;51.378;0.094;2024-03-07T02:29:30;72.22;;;19.15;;
26253;SDS011;53339;51.378;0.094;2024-03-07T02:31:58;72.80;;;21.38;;
26253;SDS011;53339;51.378;0.094;2024-03-07T02:34:26;63.60;;;19.95;;
26253;SDS011;53339;51.378;0.094;2024-03-07T02:36:54;68.70;;;18.35;;
26253;SDS011;53339;51.378;0.094;2024-03-07T02:39:22;63.85;;;19.77;;
26253;SDS011;53339;51.378;0.094;2024-03-07T02:41:52;70.03;;;20.02;;
26253;SDS011;53339;51.378;0.094;2024-03-07T02:44:19;72.03;;;20.65;;
26253;SDS011;53339;51.378;0.094;2024-03-07T02:46:47;64.10;;;17.17;;
26253;SDS011;53339;51.378;0.094;2024-03-07T02:49:15;78.25;;;20.23;;
26253;SDS011;53339;51.378;0.094;2024-03-07T02:51:42;71.97;;;19.55;;
26253;SDS011;53339;51.378;0.094;2024-03-07T02:54:10;72.90;;;20.75;;
26253;SDS011;53339;51.378;0.094;2024-03-07T02:56:38;67.85;;;19.90;;
26253;SDS011;53339;51.378;0.094;2024-03-07T02:59:05;77.75;;;22.02;;
26253;SDS011;53339;51.378;0.094;2024-03-07T03:01:33;65.15;;;17.63;;
26253;SDS011;53339;51.378;0.094;2024-03-07T03:04:01;72.22;;;22.70;;
26253;SDS011;53339;51.378;0.094;2024-03-07T03:06:29;65.63;;;21.00;;
26253;SDS011;53339;51.378;0.094;2024-03-07T03:08:59;70.22;;;22.00;;
26253;SDS011;53339;51.378;0.094;2024-03-07T03:11:27;74.70;;;23.65;;
26253;SDS011;53339;51.378;0.094;2024-03-07T03:13:54;70.18;;;20.13;;
26253;SDS011;53339;51.378;0.094;2024-03-07T03:16:22;71.63;;;21.83;;
26253;SDS011;53339;51.378;0.094;2024-03-07T03:19:00;66.43;;;19.88;;
26253;SDS011;53339;51.378;0.094;2024-03-07T03:21:27;63.67;;;20.63;;
26253;SDS011;53339;51.378;0.094;2024-03-07T03:23:55;67.85;;;19.65;;
26253;SDS011;53339;51.378;0.094;2024-03-07T03:26:23;64.03;;;19.52;;
26253;SDS011;53339;51.378;0.094;2024-03-07T03:28:50;73.88;;;21.63;;
26253;SDS011;53339;51.378;0.094;2024-03-07T03:31:19;61.55;;;21.90;;
26253;SDS011;53339;51.378;0.094;2024-03-07T03:33:47;66.28;;;19.70;;
26253;SDS011;53339;51.378;0.094;2024-03-07T03:36:14;56.35;;;20.02;;
26253;SDS011;53339;51.378;0.094;2024-03-07T03:38:42;69.68;;;19.73;;
26253;SDS011;53339;51.378;0.094;2024-03-07T03:41:14;58.70;;;19.02;;
26253;SDS011;53339;51.378;0.094;2024-03-07T03:43:44;63.33;;;20.75;;
26253;SDS011;53339;51.378;0.094;2024-03-07T03:46:12;55.33;;;20.67;;
26253;SDS011;53339;51.378;0.094;2024-03-07T03:48:40;51.80;;;16.92;;
26253;SDS011;53339;51.378;0.094;2024-03-07T03:51:08;52.90;;;17.83;;
26253;SDS011;53339;51.378;0.094;2024-03-07T03:53:36;55.13;;;17.45;;
26253;SDS011;53339;51.378;0.094;2024-03-07T03:56:04;57.65;;;17.58;;
26253;SDS011;53339;51.378;0.094;2024-03-07T03:58:33;50.83;;;16.48;;
26253;SDS011;53339;51.378;0.094;2024-03-07T04:01:01;41.88;;;14.95;;
26253;SDS011;53339;51.378;0.094;2024-03-07T04:03:29;45.88;;;17.08;;
26253;SDS011;53339;51.378;0.094;2024-03-07T04:05:57;53.15;;;17.00;;
26253;SDS011;53339;51.378;0.094;2024-03-07T04:08:25;62.55;;;21.40;;
26253;SDS011;53339;51.378;0.094;2024-03-07T04:10:52;60.55;;;20.25;;
26253;SDS011;53339;51.378;0.094;2024-03-07T04:13:20;52.08;;;19.23;;
26253;SDS011;53339;51.378;0.094;2024-03-07T04:15:49;44.70;;;16.30;;
26253;SDS011;53339;51.378;0.094;2024-03-07T04:18:17;51.45;;;16.70;;
26253;SDS011;53339;51.378;0.094;2024-03-07T04:20:45;58.55;;;19.27;;
26253;SDS011;53339;51.378;0.094;2024-03-07T04:23:12;55.72;;;18.27;;
26253;SDS011;53339;51.378;0.094;2024-03-07T04:25:40;50.63;;;16.63;;
26253;SDS011;53339;51.378;0.094;2024-03-07T04:28:08;63.92;;;18.13;;
26253;SDS011;53339;51.378;0.094;2024-03-07T04:30:36;52.97;;;18.10;;
26253;SDS011;53339;51.378;0.094;2024-03-07T04:33:03;61.13;;;20.63;;
26253;SDS011;53339;51.378;0.094;2024-03-07T04:35:32;39.42;;;16.42;;
26253;SDS011;53339;51.378;0.094;2024-03-07T04:38:00;61.85;;;20.13;;
26253;SDS011;53339;51.378;0.094;2024-03-07T04:40:28;58.90;;;18.10;;
26253;SDS011;53339;51.378;0.094;2024-03-07T04:42:56;60.72;;;18.52;;
26253;SDS011;53339;51.378;0.094;2024-03-07T04:45:23;54.22;;;19.40;;
26253;SDS011;53339;51.378;0.094;2024-03-07T04:47:52;57.35;;;17.90;;
26253;SDS011;53339;51.378;0.094;2024-03-07T04:50:20;65.43;;;21.48;;
26253;SDS011;53339;51.378;0.094;2024-03-07T04:52:48;63.25;;;19.13;;
26253;SDS011;53339;51.378;0.094;2024-03-07T04:55:16;48.75;;;17.90;;
26253;SDS011;53339;51.378;0.094;2024-03-07T04:57:44;57.97;;;20.38;;
26253;SDS011;53339;51.378;0.094;2024-03-07T05:00:12;54.75;;;19.33;;
26253;SDS011;53339;51.378;0.094;2024-03-07T05:02:42;53.95;;;17.10;;
26253;SDS011;53339;51.378;0.094;2024-03-07T05:05:11;55.30;;;20.48;;
26253;SDS011;53339;51.378;0.094;2024-03-07T05:07:40;63.20;;;20.42;;
26253;SDS011;53339;51.378;0.094;2024-03-07T05:10:08;55.85;;;18.52;;
26253;SDS011;53339;51.378;0.094;2024-03-07T05:12:36;61.67;;;21.50;;
26253;SDS011;53339;51.378;0.094;2024-03-07T05:15:05;54.00;;;18.63;;
26253;SDS011;53339;51.378;0.094;2024-03-07T05:17:33;62.53;;;19.67;;
26253;SDS011;53339;51.378;0.094;2024-03-07T05:20:03;57.70;;;18.42;;
26253;SDS011;53339;51.378;0.094;2024-03-07T05:22:37;64.43;;;20.60;;
26253;SDS011;53339;51.378;0.094;2024-03-07T05:25:07;58.33;;;18.02;;
26253;SDS011;53339;51.378;0.094;2024-03-07T05:27:36;65.43;;;20.35;;
26253;SDS011;53339;51.378;0.094;2024-03-07T05:30:04;60.95;;;20.70;;
26253;SDS011;53339;51.378;0.094;2024-03-07T05:32:37;61.10;;;18.42;;
26253;SDS011;53339;51.378;0.094;2024-03-07T05:35:06;53.30;;;17.98;;
26253;SDS011;53339;51.378;0.094;2024-03-07T05:37:34;71.93;;;22.08;;
26253;SDS011;53339;51.378;0.094;2024-03-07T05:40:01;59.92;;;20.15;;
26253;SDS011;53339;51.378;0.094;2024-03-07T05:42:31;63.38;;;20.13;;
26253;SDS011;53339;51.378;0.094;2024-03-07T05:44:59;66.18;;;20.75;;
26253;SDS011;53339;51.378;0.094;2024-03-07T05:47:26;52.53;;;19.80;;
26253;SDS011;53339;51.378;0.094;2024-03-07T05:49:54;67.65;;;21.75;;
26253;SDS011;53339;51.378;0.094;2024-03-07T05:52:22;66.18;;;21.48;;
26253;SDS011;53339;51.378;0.094;2024-03-07T05:54:49;60.28;;;19.60;;
26253;SDS011;53339;51.378;0.094;2024-03-07T05:57:18;60.70;;;21.13;;
26253;SDS011;53339;51.378;0.094;2024-03-07T05:59:46;59.40;;;20.67;;
26253;SDS011;53339;51.378;0.094;2024-03-07T06:02:14;67.00;;;21.80;;
26253;SDS011;53339;51.378;0.094;2024-03-07T06:04:43;65.38;;;20.42;;
26253;SDS011;53339;51.378;0.094;2024-03-07T06:07:10;63.97;;;22.10;;
26253;SDS011;53339;51.378;0.094;2024-03-07T06:09:39;61.88;;;20.40;;
26253;SDS011;53339;51.378;0.094;2024-03-07T06:12:06;64.60;;;21.63;;
26253;SDS011;53339;51.378;0.094;2024-03-07T06:14:41;57.17;;;18.20;;
26253;SDS011;53339;51.378;0.094;2024-03-07T06:17:09;56.05;;;20.45;;
26253;SDS011;53339;51.378;0.094;2024-03-07T06:19:37;63.85;;;22.33;;
26253;SDS011;53339;51.378;0.094;2024-03-07T06:22:05;55.28;;;20.08;;
26253;SDS011;53339;51.378;0.094;2024-03-07T06:24:35;61.28;;;22.65;;
26253;SDS011;53339;51.378;0.094;2024-03-07T06:27:04;60.10;;;22.50;;
26253;SDS011;53339;51.378;0.094;2024-03-07T06:29:42;67.45;;;21.27;;
26253;SDS011;53339;51.378;0.094;2024-03-07T06:32:10;55.55;;;21.27;;
26253;SDS011;53339;51.378;0.094;2024-03-07T06:34:38;61.92;;;22.10;;
26253;SDS011;53339;51.378;0.094;2024-03-07T06:37:06;47.58;;;17.35;;
26253;SDS011;53339;51.378;0.094;2024-03-07T06:39:35;50.50;;;19.42;;
26253;SDS011;53339;51.378;0.094;2024-03-07T06:42:03;62.50;;;21.30;;
26253;SDS011;53339;51.378;0.094;2024-03-07T06:44:30;63.20;;;21.80;;
26253;SDS011;53339;51.378;0.094;2024-03-07T06:46:58;69.47;;;21.30;;
26253;SDS011;53339;51.378;0.094;2024-03-07T06:49:26;50.00;;;21.13;;
26253;SDS011;53339;51.378;0.094;2024-03-07T06:51:55;72.93;;;25.85;;
26253;SDS011;53339;51.378;0.094;2024-03-07T06:54:23;67.32;;;23.48;;
26253;SDS011;53339;51.378;0.094;2024-03-07T06:56:50;70.72;;;23.20;;
26253;SDS011;53339;51.378;0.094;2024-03-07T06:59:18;66.32;;;23.50;;
26253;SDS011;53339;51.378;0.094;2024-03-07T07:01:46;67.28;;;23.63;;
26253;SDS011;53339;51.378;0.094;2024-03-07T07:04:13;65.72;;;24.80;;
26253;SDS011;53339;51.378;0.094;2024-03-07T07:06:42;63.00;;;22.58;;
26253;SDS011;53339;51.378;0.094;2024-03-07T07:09:12;64.38;;;20.52;;
26253;SDS011;53339;51.378;0.094;2024-03-07T07:11:39;67.30;;;21.83;;
26253;SDS011;53339;51.378;0.094;2024-03-07T07:14:07;60.95;;;21.67;;
26253;SDS011;53339;51.378;0.094;2024-03-07T07:16:34;70.18;;;21.48;;
26253;SDS011;53339;51.378;0.094;2024-03-07T07:19:02;58.05;;;20.90;;
26253;SDS011;53339;51.378;0.094;2024-03-07T07:21:30;62.08;;;23.25;;
26253;SDS011;53339;51.378;0.094;2024-03-07T07:23:58;67.13;;;21.02;;
26253;SDS011;53339;51.378;0.094;2024-03-07T07:26:26;66.45;;;24.50;;
26253;SDS011;53339;51.378;0.094;2024-03-07T07:28:53;69.38;;;23.85;;
26253;SDS011;53339;51.378;0.094;2024-03-07T07:31:21;82.03;;;25.83;;
26253;SDS011;53339;51.378;0.094;2024-03-07T07:33:49;69.80;;;23.02;;
26253;SDS011;53339;51.378;0.094;2024-03-07T07:36:17;81.05;;;27.33;;
26253;SDS011;53339;51.378;0.094;2024-03-07T07:38:45;73.15;;;28.02;;
26253;SDS011;53339;51.378;0.094;2024-03-07T07:41:13;74.32;;;25.25;;
26253;SDS011;53339;51.378;0.094;2024-03-07T07:43:41;65.90;;;26.25;;
26253;SDS011;53339;51.378;0.094;2024-03-07T07:46:09;70.63;;;24.95;;
26253;SDS011;53339;51.378;0.094;2024-03-07T07:48:37;63.47;;;22.95;;
26253;SDS011;53339;51.378;0.094;2024-03-07T07:51:05;73.70;;;25.95;;
26253;SDS011;53339;51.378;0.094;2024-03-07T07:53:34;70.57;;;26.33;;
26253;SDS011;53339;51.378;0.094;2024-03-07T07:56:02;74.63;;;25.48;;
26253;SDS011;53339;51.378;0.094;2024-03-07T07:58:29;71.25;;;24.95;;
26253;SDS011;53339;51.378;0.094;2024-03-07T08:00:57;67.30;;;22.52;;
26253;SDS011;53339;51.378;0.094;2024-03-07T08:03:25;77.78;;;26.90;;
26253;SDS011;53339;51.378;0.094;2024-03-07T08:05:52;64.85;;;23.02;;
26253;SDS011;53339;51.378;0.094;2024-03-07T08:08:21;71.05;;;26.92;;
26253;SDS011;53339;51.378;0.094;2024-03-07T08:10:49;74.60;;;26.10;;
26253;SDS011;53339;51.378;0.094;2024-03-07T08:13:17;78.10;;;27.42;;
26253;SDS011;53339;51.378;0.094;2024-03-07T08:15:45;63.13;;;24.00;;
26253;SDS011;53339;51.378;0.094;2024-03-07T08:18:16;67.28;;;25.20;;
26253;SDS011;53339;51.378;0.094;2024-03-07T08:20:44;67.00;;;23.13;;
26253;SDS011;53339;51.378;0.094;2024-03-07T08:23:12;65.93;;;24.30;;
26253;SDS011;53339;51.378;0.094;2024-03-07T08:25:40;73.85;;;24.92;;
26253;SDS011;53339;51.378;0.094;2024-03-07T08:28:08;65.72;;;24.75;;
26253;SDS011;53339;51.378;0.094;2024-03-07T08:30:36;64.68;;;24.83;;
26253;SDS011;53339;51.378;0.094;2024-03-07T08:33:03;58.28;;;23.48;;
26253;SDS011;53339;51.378;0.094;2024-03-07T08:35:33;69.38;;;24.27;;
26253;SDS011;53339;51.378;0.094;2024-03-07T08:38:01;67.75;;;25.70;;
26253;SDS011;53339;51.378;0.094;2024-03-07T08:40:29;65.82;;;24.95;;
26253;SDS011;53339;51.378;0.094;2024-03-07T08:45:28;65.05;;;25.30;;
26253;SDS011;53339;51.378;0.094;2024-03-07T08:47:56;66.93;;;24.25;;
26253;SDS011;53339;51.378;0.094;2024-03-07T08:50:25;68.68;;;23.67;;
26253;SDS011;53339;51.378;0.094;2024-03-07T08:52:54;58.88;;;23.27;;
26253;SDS011;53339;51.378;0.094;2024-03-07T08:55:22;62.92;;;26.42;;
26253;SDS011;53339;51.378;0.094;2024-03-07T08:57:54;68.32;;;24.58;;
26253;SDS011;53339;51.378;0.094;2024-03-07T09:00:22;70.30;;;24.50;;
26253;SDS011;53339;51.378;0.094;2024-03-07T09:02:51;62.20;;;25.73;;
26253;SDS011;53339;51.378;0.094;2024-03-07T09:05:21;69.13;;;25.33;;
26253;SDS011;53339;51.378;0.094;2024-03-07T09:07:53;60.80;;;23.05;;
26253;SDS011;53339;51.378;0.094;2024-03-07T09:10:22;64.93;;;23.50;;
26253;SDS011;53339;51.378;0.094;2024-03-07T09:12:52;62.55;;;25.77;;
26253;SDS011;53339;51.378;0.094;2024-03-07T09:15:21;65.95;;;24.55;;
26253;SDS011;53339;51.378;0.094;2024-03-07T09:17:50;56.33;;;22.90;;
26253;SDS011;53339;51.378;0.094;2024-03-07T09:20:19;63.97;;;22.60;;
26253;SDS011;53339;51.378;0.094;2024-03-07T09:22:47;56.03;;;20.63;;
26253;SDS011;53339;51.378;0.094;2024-03-07T09:25:21;64.88;;;24.80;;
26253;SDS011;53339;51.378;0.094;2024-03-07T09:27:49;72.70;;;28.48;;
26253;SDS011;53339;51.378;0.094;2024-03-07T09:30:16;68.18;;;26.73;;
26253;SDS011;53339;51.378;0.094;2024-03-07T09:32:49;68.47;;;26.35;;
26253;SDS011;53339;51.378;0.094;2024-03-07T09:35:17;76.53;;;28.30;;
26253;SDS011;53339;51.378;0.094;2024-03-07T09:37:44;81.38;;;28.45;;
26253;SDS011;53339;51.378;0.094;2024-03-07T09:40:12;75.28;;;28.75;;
26253;SDS011;53339;51.378;0.094;2024-03-07T09:42:45;76.22;;;26.92;;
26253;SDS011;53339;51.378;0.094;2024-03-07T09:45:16;83.68;;;28.92;;
26253;SDS011;53339;51.378;0.094;2024-03-07T09:47:46;78.95;;;30.23;;
26253;SDS011;53339;51.378;0.094;2024-03-07T09:50:19;82.72;;;30.45;;
26253;SDS011;53339;51.378;0.094;2024-03-07T09:52:49;77.68;;;26.85;;
26253;SDS011;53339;51.378;0.094;2024-03-07T09:55:19;84.93;;;29.83;;
26253;SDS011;53339;51.378;0.094;2024-03-07T09:57:49;73.90;;;30.90;;
26253;SDS011;53339;51.378;0.094;2024-03-07T10:00:18;79.60;;;30.38;;
26253;SDS011;53339;51.378;0.094;2024-03-07T10:02:53;76.15;;;26.70;;
26253;SDS011;53339;51.378;0.094;2024-03-07T10:05:41;81.57;;;31.27;;
26253;SDS011;53339;51.378;0.094;2024-03-07T10:08:09;83.78;;;30.42;;
26253;SDS011;53339;51.378;0.094;2024-03-07T10:10:38;75.47;;;28.83;;
26253;SDS011;53339;51.378;0.094;2024-03-07T10:13:05;79.57;;;31.80;;
26253;SDS011;53339;51.378;0.094;2024-03-07T10:15:35;83.25;;;30.88;;
26253;SDS011;53339;51.378;0.094;2024-03-07T10:18:06;77.05;;;28.95;;
26253;SDS011;53339;51.378;0.094;2024-03-07T10:20:35;79.75;;;30.85;;
26253;SDS011;53339;51.378;0.094;2024-03-07T10:23:04;66.68;;;27.45;;
26253;SDS011;53339;51.378;0.094;2024-03-07T10:25:34;66.85;;;25.42;;
26253;SDS011;53339;51.378;0.094;2024-03-07T10:28:02;81.63;;;31.52;;
26253;SDS011;53339;51.378;0.094;2024-03-07T10:30:39;82.20;;;29.45;;
26253;SDS011;53339;51.378;0.094;2024-03-07T10:35:36;78.30;;;28.30;;
26253;SDS011;53339;51.378;0.094;2024-03-07T10:38:04;83.15;;;29.85;;
26253;SDS011;53339;51.378;0.094;2024-03-07T10:40:34;92.82;;;31.55;;
26253;SDS011;53339;51.378;0.094;2024-03-07T10:43:11;78.07;;;28.65;;
26253;SDS011;53339;51.378;0.094;2024-03-07T10:45:45;84.30;;;29.73;;
26253;SDS011;53339;51.378;0.094;2024-03-07T10:48:18;85.95;;;31.67;;
26253;SDS011;53339;51.378;0.094;2024-03-07T10:59:37;79.57;;;27.75;;
26253;SDS011;53339;51.378;0.094;2024-03-07T11:02:17;73.10;;;28.15;;
26253;SDS011;53339;51.378;0.094;2024-03-07T11:05:12;69.43;;;25.00;;
26253;SDS011;53339;51.378;0.094;2024-03-07T11:07:43;74.53;;;29.70;;
26253;SDS011;53339;51.378;0.094;2024-03-07T11:10:11;70.93;;;28.95;;
26253;SDS011;53339;51.378;0.094;2024-03-07T11:12:40;77.93;;;28.83;;
26253;SDS011;53339;51.378;0.094;2024-03-07T11:15:09;74.30;;;27.40;;
26253;SDS011;53339;51.378;0.094;2024-03-07T11:17:45;63.58;;;23.92;;
26253;SDS011;53339;51.378;0.094;2024-03-07T11:20:27;66.43;;;25.50;;
26253;SDS011;53339;51.378;0.094;2024-03-07T11:23:02;61.22;;;22.92;;
26253;SDS011;53339;51.378;0.094;2024-03-07T11:26:01;60.72;;;24.05;;
26253;SDS011;53339;51.378;0.094;2024-03-07T11:28:40;63.47;;;24.85;;
26253;SDS011;53339;51.378;0.094;2024-03-07T11:31:15;62.95;;;23.58;;
26253;SDS011;53339;51.378;0.094;2024-03-07T11:36:42;50.58;;;20.50;;
26253;SDS011;53339;51.378;0.094;2024-03-07T11:42:25;45.05;;;18.65;;
26253;SDS011;53339;51.378;0.094;2024-03-07T11:44:55;49.28;;;20.52;;
26253;SDS011;53339;51.378;0.094;2024-03-07T11:47:25;47.63;;;19.17;;
26253;SDS011;53339;51.378;0.094;2024-03-07T11:49:56;49.85;;;19.77;;
26253;SDS011;53339;51.378;0.094;2024-03-07T11:52:27;49.50;;;20.98;;
26253;SDS011;53339;51.378;0.094;2024-03-07T11:54:55;42.60;;;18.55;;
26253;SDS011;53339;51.378;0.094;2024-03-07T11:57:31;46.75;;;19.75;;
26253;SDS011;53339;51.378;0.094;2024-03-07T12:00:02;52.15;;;21.25;;
26253;SDS011;53339;51.378;0.094;2024-03-07T12:02:39;50.50;;;20.30;;
26253;SDS011;53339;51.378;0.094;2024-03-07T12:05:08;42.08;;;19.15;;
26253;SDS011;53339;51.378;0.094;2024-03-07T12:07:36;37.15;;;16.17;;
26253;SDS011;53339;51.378;0.094;2024-03-07T12:10:05;37.58;;;16.63;;
26253;SDS011;53339;51.378;0.094;2024-03-07T12:12:36;41.33;;;18.80;;
26253;SDS011;53339;51.378;0.094;2024-03-07T12:15:07;39.50;;;17.00;;
26253;SDS011;53339;51.378;0.094;2024-03-07T12:17:48;35.70;;;17.02;;
26253;SDS011;53339;51.378;0.094;2024-03-07T12:20:17;40.47;;;16.67;;
26253;SDS011;53339;51.378;0.094;2024-03-07T12:22:59;41.22;;;17.02;;
26253;SDS011;53339;51.378;0.094;2024-03-07T12:25:30;35.70;;;14.07;;
26253;SDS011;53339;51.378;0.094;2024-03-07T12:28:10;32.17;;;13.15;;
26253;SDS011;53339;51.378;0.094;2024-03-07T12:33:13;33.83;;;13.57;;
26253;SDS011;53339;51.378;0.094;2024-03-07T12:35:44;39.08;;;13.10;;
26253;SDS011;53339;51.378;0.094;2024-03-07T12:38:13;30.55;;;14.18;;
26253;SDS011;53339;51.378;0.094;2024-03-07T12:40:43;36.22;;;14.65;;
26253;SDS011;53339;51.378;0.094;2024-03-07T12:43:16;29.48;;;11.10;;
26253;SDS011;53339;51.378;0.094;2024-03-07T12:45:51;30.60;;;12.50;;
26253;SDS011;53339;51.378;0.094;2024-03-07T12:48:19;30.92;;;12.93;;
26253;SDS011;53339;51.378;0.094;2024-03-07T12:50:52;28.75;;;12.55;;
26253;SDS011;53339;51.378;0.094;2024-03-07T12:53:23;29.60;;;11.52;;
26253;SDS011;53339;51.378;0.094;2024-03-07T12:55:53;23.30;;;10.80;;
26253;SDS011;53339;51.378;0.094;2024-03-07T12:58:20;34.83;;;12.90;;
26253;SDS011;53339;51.378;0.094;2024-03-07T13:00:53;27.80;;;12.65;;
26253;SDS011;53339;51.378;0.094;2024-03-07T13:03:25;32.58;;;13.80;;
26253;SDS011;53339;51.378;0.094;2024-03-07T13:05:57;32.30;;;13.38;;
26253;SDS011;53339;51.378;0.094;2024-03-07T13:08:29;21.27;;;9.68;;
26253;SDS011;53339;51.378;0.094;2024-03-07T13:10:57;29.77;;;11.70;;
26253;SDS011;53339;51.378;0.094;2024-03-07T13:13:26;33.38;;;11.85;;
26253;SDS011;53339;51.378;0.094;2024-03-07T13:15:54;30.67;;;12.45;;
26253;SDS011;53339;51.378;0.094;2024-03-07T13:18:22;32.58;;;13.98;;
26253;SDS011;53339;51.378;0.094;2024-03-07T13:20:51;32.63;;;13.30;;
26253;SDS011;53339;51.378;0.094;2024-03-07T13:23:19;38.58;;;13.43;;
26253;SDS011;53339;51.378;0.094;2024-03-07T13:25:47;30.65;;;13.48;;
26253;SDS011;53339;51.378;0.094;2024-03-07T13:28:15;33.65;;;13.95;;
26253;SDS011;53339;51.378;0.094;2024-03-07T13:30:45;35.20;;;15.25;;
26253;SDS011;53339;51.378;0.094;2024-03-07T13:33:16;36.05;;;14.25;;
26253;SDS011;53339;51.378;0.094;2024-03-07T13:35:44;31.77;;;13.75;;
26253;SDS011;53339;51.378;0.094;2024-03-07T13:38:12;30.33;;;14.60;;
26253;SDS011;53339;51.378;0.094;2024-03-07T13:40:40;30.85;;;13.68;;
26253;SDS011;53339;51.378;0.094;2024-03-07T13:43:08;34.13;;;14.23;;
26253;SDS011;53339;51.378;0.094;2024-03-07T13:45:36;37.53;;;15.57;;
26253;SDS011;53339;51.378;0.094;2024-03-07T13:48:11;30.85;;;14.73;;
26253;SDS011;53339;51.378;0.094;2024-03-07T13:50:42;33.92;;;14.57;;
26253;SDS011;53339;51.378;0.094;2024-03-07T13:53:21;34.40;;;14.27;;
26253;SDS011;53339;51.378;0.094;2024-03-07T14:04:23;38.15;;;16.25;;
26253;SDS011;53339;51.378;0.094;2024-03-07T14:07:07;40.03;;;15.88;;
26253;SDS011;53339;51.378;0.094;2024-03-07T14:10:04;37.47;;;17.75;;
26253;SDS011;53339;51.378;0.094;2024-03-07T14:28:32;47.05;;;18.35;;
26253;SDS011;53339;51.378;0.094;2024-03-07T14:31:23;47.95;;;20.85;;
26253;SDS011;53339;51.378;0.094;2024-03-07T14:39:29;47.95;;;20.40;;
26253;SDS011;53339;51.378;0.094;2024-03-07T14:42:02;51.50;;;19.73;;
26253;SDS011;53339;51.378;0.094;2024-03-07T14:44:37;41.63;;;17.83;;
26253;SDS011;53339;51.378;0.094;2024-03-07T14:47:08;44.67;;;18.70;;
26253;SDS011;53339;51.378;0.094;2024-03-07T14:49:38;43.22;;;19.08;;
26253;SDS011;53339;51.378;0.094;2024-03-07T14:52:06;45.17;;;18.15;;
26253;SDS011;53339;51.378;0.094;2024-03-07T14:54:38;41.80;;;17.52;;
26253;SDS011;53339;51.378;0.094;2024-03-07T14:57:07;41.58;;;17.75;;
26253;SDS011;53339;51.378;0.094;2024-03-07T14:59:37;40.20;;;17.10;;
26253;SDS011;53339;51.378;0.094;2024-03-07T15:02:08;36.25;;;15.57;;
26253;SDS011;53339;51.378;0.094;2024-03-07T15:04:38;34.28;;;15.43;;
26253;SDS011;53339;51.378;0.094;2024-03-07T15:07:08;39.63;;;16.45;;
26253;SDS011;53339;51.378;0.094;2024-03-07T15:09:36;37.10;;;17.08;;
26253;SDS011;53339;51.378;0.094;2024-03-07T15:12:05;38.33;;;16.77;;
26253;SDS011;53339;51.378;0.094;2024-03-07T15:14:34;34.30;;;14.65;;
26253;SDS011;53339;51.378;0.094;2024-03-07T15:17:04;36.83;;;14.77;;
26253;SDS011;53339;51.378;0.094;2024-03-07T15:19:33;33.65;;;15.10;;
26253;SDS011;53339;51.378;0.094;2024-03-07T15:22:04;28.85;;;12.88;;
26253;SDS011;53339;51.378;0.094;2024-03-07T15:24:32;29.55;;;13.52;;
26253;SDS011;53339;51.378;0.094;2024-03-07T15:27:02;27.05;;;13.02;;